createdAt,value
2023-03-17T00:02:04.378Z,99412.38
2023-03-17T00:04:33.144Z,99414.06
2023-03-17T00:07:01.478Z,99406.25
2023-03-17T00:09:29.923Z,99407.94
2023-03-17T00:11:58.657Z,99398.28
2023-03-17T00:14:28.251Z,99393.84
2023-03-17T00:16:56.565Z,99390.25
2023-03-17T00:19:30.019Z,99387.53
2023-03-17T00:21:59.128Z,99384.22
2023-03-17T00:24:27.653Z,99398.13
2023-03-17T00:26:56.012Z,99407.66
2023-03-17T00:29:25.604Z,99404.59
2023-03-17T00:31:56.357Z,99396.63
2023-03-17T00:34:24.590Z,99404.50
2023-03-17T00:36:53.545Z,99414.25
2023-03-17T00:39:25.538Z,99406.34
2023-03-17T00:41:55.927Z,99399.56
2023-03-17T00:44:24.333Z,99389.28
2023-03-17T00:46:54.449Z,99394.63
2023-03-17T00:49:25.146Z,99402.78
2023-03-17T00:51:54.362Z,99394.69
2023-03-17T00:54:23.397Z,99411.28
2023-03-17T00:56:52.844Z,99397.56
2023-03-17T00:59:26.523Z,99401.06
2023-03-17T01:01:56.659Z,99390.22
2023-03-17T01:04:25.657Z,99382.25
2023-03-17T01:06:54.429Z,99380.56
2023-03-17T01:09:26.644Z,99378.97
2023-03-17T01:11:55.195Z,99384.53
2023-03-17T01:14:24.916Z,99383.88
2023-03-17T01:16:55.334Z,99374.50
2023-03-17T01:19:25.452Z,99380.84
2023-03-17T01:21:53.711Z,99388.47
2023-03-17T01:24:22.078Z,99370.97
2023-03-17T01:26:50.974Z,99373.84
2023-03-17T01:29:19.238Z,99358.44
2023-03-17T01:31:47.862Z,99363.53
2023-03-17T01:34:16.555Z,99377.16
2023-03-17T01:36:46.922Z,99373.72
2023-03-17T01:39:16.276Z,99376.81
2023-03-17T01:41:45.647Z,99369.78
2023-03-17T01:44:18.649Z,99376.47
2023-03-17T01:46:47.963Z,99363.41
2023-03-17T01:49:21.953Z,99364.59
2023-03-17T01:52:01.079Z,99362.69
2023-03-17T01:54:35.748Z,99365.53
2023-03-17T01:57:10.605Z,99355.81
2023-03-17T01:59:45.608Z,99343.44
2023-03-17T02:02:19.925Z,99344.19
2023-03-17T02:04:48.415Z,99337.81
2023-03-17T02:07:18.756Z,99329.59
2023-03-17T02:09:47.624Z,99334.88
2023-03-17T02:12:16.498Z,99316.78
2023-03-17T02:14:45.339Z,99317.72
2023-03-17T02:17:14.937Z,99315.66
2023-03-17T02:19:43.967Z,99315.66
2023-03-17T02:22:13.850Z,99322.72
2023-03-17T02:24:47.340Z,99324.06
2023-03-17T02:27:20.396Z,99322.72
2023-03-17T02:29:49.272Z,99325.88
2023-03-17T02:32:19.072Z,99315.50
2023-03-17T02:34:48.743Z,99298.16
2023-03-17T02:37:20.635Z,99322.53
2023-03-17T02:39:49.001Z,99313.00
2023-03-17T02:42:17.188Z,99324.22
2023-03-17T02:44:45.642Z,99332.19
2023-03-17T02:47:14.407Z,99343.50
2023-03-17T02:49:44.048Z,99334.59
2023-03-17T02:52:12.439Z,99316.78
2023-03-17T02:54:42.844Z,99308.25
2023-03-17T02:57:11.417Z,99302.03
2023-03-17T02:59:39.896Z,99301.66
2023-03-17T03:02:08.228Z,99317.06
2023-03-17T03:04:37.584Z,99309.16
2023-03-17T03:07:07.467Z,99305.84
2023-03-17T03:09:35.926Z,99316.03
2023-03-17T03:12:06.165Z,99321.81
2023-03-17T03:14:34.452Z,99311.56
2023-03-17T03:17:02.728Z,99305.41
2023-03-17T03:19:31.326Z,99311.75
2023-03-17T03:21:59.914Z,99304.75
2023-03-17T03:24:29.557Z,99319.72
2023-03-17T03:26:57.781Z,99296.38
2023-03-17T03:29:27.695Z,99298.97
2023-03-17T03:31:56.571Z,99290.94
2023-03-17T03:34:25.855Z,99292.31
2023-03-17T03:36:54.580Z,99284.63
2023-03-17T03:39:22.840Z,99288.22
2023-03-17T03:41:51.088Z,99287.66
2023-03-17T03:44:19.645Z,99286.16
2023-03-17T03:46:49.353Z,99288.59
2023-03-17T03:49:17.712Z,99287.50
2023-03-17T03:51:46.453Z,99287.31
2023-03-17T03:54:15.014Z,99293.59
2023-03-17T03:56:43.533Z,99296.19
2023-03-17T03:59:11.760Z,99302.50
2023-03-17T04:01:40.123Z,99295.63
2023-03-17T04:04:09.981Z,99292.69
2023-03-17T04:06:38.243Z,99299.72
2023-03-17T04:09:06.718Z,99291.00
2023-03-17T04:11:35.013Z,99290.09
2023-03-17T04:14:03.370Z,99270.41
2023-03-17T04:16:32.049Z,99284.06
2023-03-17T04:19:00.524Z,99277.75
2023-03-17T04:21:30.397Z,99275.72
2023-03-17T04:23:58.826Z,99273.72
2023-03-17T04:26:27.229Z,99282.03
2023-03-17T04:28:55.971Z,99281.09
2023-03-17T04:31:24.521Z,99278.25
2023-03-17T04:33:53.171Z,99287.59
2023-03-17T04:36:36.574Z,99288.22
2023-03-17T04:39:18.348Z,99289.53
2023-03-17T04:42:06.476Z,99287.53
2023-03-17T04:44:47.717Z,99277.13
2023-03-17T04:47:35.601Z,99283.34
2023-03-17T04:50:25.488Z,99277.50
2023-03-17T04:53:09.161Z,99283.97
2023-03-17T04:55:56.437Z,99276.19
2023-03-17T04:58:44.709Z,99291.94
2023-03-17T05:01:26.555Z,99281.56
2023-03-17T05:04:25.311Z,99288.59
2023-03-17T05:07:12.440Z,99276.84
2023-03-17T05:10:02.247Z,99276.84
2023-03-17T05:12:44.432Z,99281.94
2023-03-17T05:15:39.414Z,99289.53
2023-03-17T05:18:23.477Z,99287.31
2023-03-17T05:21:11.489Z,99290.66
2023-03-17T05:23:59.680Z,99288.81
2023-03-17T05:26:42.392Z,99292.25
2023-03-17T05:29:30.635Z,99282.13
2023-03-17T05:32:12.473Z,99297.97
2023-03-17T05:35:00.630Z,99292.13
2023-03-17T05:37:42.462Z,99294.13
2023-03-17T05:40:30.897Z,99287.13
2023-03-17T05:43:14.376Z,99288.75
2023-03-17T05:46:02.464Z,99284.41
2023-03-17T05:48:43.615Z,99274.03
2023-03-17T05:51:36.812Z,99283.41
2023-03-17T05:54:17.645Z,99291.28
2023-03-17T05:57:05.340Z,99282.91
2023-03-17T05:59:48.658Z,99283.94
2023-03-17T06:02:37.391Z,99283.56
2023-03-17T06:05:18.597Z,99278.97
2023-03-17T06:08:07.324Z,99289.06
2023-03-17T06:10:48.642Z,99288.22
2023-03-17T06:13:36.362Z,99286.56
2023-03-17T06:16:27.342Z,99296.59
2023-03-17T06:19:15.818Z,99289.72
2023-03-17T06:21:57.393Z,99302.31
2023-03-17T06:24:45.764Z,99290.44
2023-03-17T06:27:27.400Z,99301.75
2023-03-17T06:30:18.568Z,99293.41
2023-03-17T06:33:01.401Z,99299.97
2023-03-17T06:35:49.576Z,99289.59
2023-03-17T06:38:31.363Z,99297.63
2023-03-17T06:41:26.320Z,99284.59
2023-03-17T06:44:08.661Z,99290.03
2023-03-17T06:46:56.335Z,99298.31
2023-03-17T06:49:39.435Z,99288.28
2023-03-17T06:52:27.490Z,99293.91
2023-03-17T06:55:17.634Z,99295.41
2023-03-17T06:57:59.254Z,99295.41
2023-03-17T07:00:48.971Z,99292.81
2023-03-17T07:03:31.333Z,99300.16
2023-03-17T07:06:20.482Z,99297.63
2023-03-17T07:09:02.463Z,99301.66
2023-03-17T07:11:57.266Z,99298.03
2023-03-17T07:14:39.008Z,99292.03
2023-03-17T07:17:28.272Z,99285.25
2023-03-17T07:20:18.468Z,99298.03
2023-03-17T07:23:02.285Z,99298.59
2023-03-17T07:25:50.513Z,99301.66
2023-03-17T07:28:32.319Z,99297.97
2023-03-17T07:31:21.572Z,99303.91
2023-03-17T07:34:04.260Z,99306.13
2023-03-17T07:36:52.479Z,99305.47
2023-03-17T07:39:35.247Z,99314.75
2023-03-17T07:43:13.299Z,99313.38
2023-03-17T08:01:02.277Z,99319.69
2023-03-17T08:04:01.195Z,99329.66
2023-03-17T08:06:46.640Z,99332.78
2023-03-17T08:09:35.137Z,99332.44
2023-03-17T08:12:30.178Z,99333.66
2023-03-17T08:15:13.205Z,99331.25
2023-03-17T08:18:01.184Z,99323.66
2023-03-17T08:20:51.588Z,99328.78
2023-03-17T08:23:33.186Z,99326.34
2023-03-17T08:26:22.071Z,99329.69
2023-03-17T08:29:04.186Z,99327.66
2023-03-17T08:31:52.516Z,99317.63
2023-03-17T08:34:34.224Z,99325.81
2023-03-17T08:37:24.836Z,99320.22
2023-03-17T08:40:06.200Z,99313.34
2023-03-17T08:43:03.168Z,99322.81
2023-03-17T08:45:51.709Z,99312.94
2023-03-17T08:48:33.183Z,99313.31
2023-03-17T08:51:24.289Z,99326.72
2023-03-17T08:54:07.084Z,99323.09
2023-03-17T08:56:55.312Z,99337.13
2023-03-17T08:59:37.293Z,99326.00
2023-03-17T09:02:25.343Z,99328.47
2023-03-17T09:05:07.116Z,99334.69
2023-03-17T09:08:02.224Z,99327.16
2023-03-17T09:10:45.341Z,99330.22
2023-03-17T09:13:34.071Z,99337.28
2023-03-17T09:16:24.169Z,99331.41
2023-03-17T09:19:05.057Z,99337.06
2023-03-17T09:21:53.264Z,99336.00
2023-03-17T09:24:48.083Z,99338.31
2023-03-17T09:27:38.657Z,99327.25
2023-03-17T09:30:21.062Z,99324.88
2023-03-17T09:33:10.354Z,99330.81
2023-03-17T09:35:52.145Z,99334.66
2023-03-17T09:38:41.059Z,99334.59
2023-03-17T09:41:47.365Z,99336.41
2023-03-17T09:44:53.997Z,99325.09
2023-03-17T09:48:00.355Z,99339.84
2023-03-17T09:50:55.043Z,99327.47
2023-03-17T09:53:39.197Z,99342.09
2023-03-17T09:56:28.320Z,99345.66
2023-03-17T09:59:14.277Z,99344.06
2023-03-17T10:02:04.074Z,99333.75
2023-03-17T10:04:54.073Z,99333.19
2023-03-17T10:07:42.947Z,99349.47
2023-03-17T10:10:39.047Z,99336.09
2023-03-17T10:13:51.310Z,99323.63
2023-03-17T10:16:41.950Z,99328.97
2023-03-17T10:19:37.370Z,99345.00
2023-03-17T10:22:25.994Z,99339.88
2023-03-17T10:25:28.004Z,99343.94
2023-03-17T10:28:26.051Z,99351.19
2023-03-17T10:31:26.958Z,99344.41
2023-03-17T10:34:16.029Z,99339.06
2023-03-17T10:37:08.994Z,99339.94
2023-03-17T10:39:59.997Z,99348.72
2023-03-17T10:42:41.991Z,99333.09
2023-03-17T10:45:45.151Z,99344.59
2023-03-17T10:48:27.024Z,99340.28
2023-03-17T10:51:14.972Z,99338.72
2023-03-17T10:54:08.293Z,99340.47
2023-03-17T10:56:50.127Z,99337.88
2023-03-17T11:00:28.834Z,99336.03
2023-03-17T11:03:24.806Z,99333.19
2023-03-17T11:06:15.075Z,99329.22
2023-03-17T11:09:21.623Z,99333.66
2023-03-17T11:12:33.007Z,99322.38
2023-03-17T11:15:20.341Z,99334.75
2023-03-17T11:18:10.847Z,99338.28
2023-03-17T11:20:58.757Z,99325.63
2023-03-17T11:23:59.851Z,99328.69
2023-03-17T11:27:06.962Z,99327.66
2023-03-17T11:30:07.993Z,99332.81
2023-03-17T11:33:01.946Z,99328.28
2023-03-17T11:35:53.234Z,99322.69
2023-03-17T11:38:43.846Z,99338.03
2023-03-17T11:41:53.139Z,99327.72
2023-03-17T11:45:06.914Z,99322.28
2023-03-17T11:47:59.998Z,99324.69
2023-03-17T11:50:55.894Z,99331.44
2023-03-17T11:54:08.796Z,99333.56
2023-03-17T11:56:55.804Z,99329.31
2023-03-17T11:59:49.850Z,99325.03
2023-03-17T12:02:39.796Z,99328.59
2023-03-17T12:05:32.819Z,99330.41
2023-03-17T12:08:24.606Z,99337.34
2023-03-17T12:11:16.826Z,99330.78
2023-03-17T12:14:05.029Z,99331.78
2023-03-17T12:16:55.838Z,99321.31
2023-03-17T12:19:45.251Z,99312.44
2023-03-17T12:22:40.841Z,99314.09
2023-03-17T12:26:11.359Z,99317.50
2023-03-17T12:29:15.930Z,99319.19
2023-03-17T12:42:28.235Z,99321.25
2023-03-17T12:49:45.925Z,99319.41
2023-03-17T12:52:56.893Z,99317.00
2023-03-17T12:56:03.519Z,99308.34
2023-03-17T12:59:01.976Z,99316.84
2023-03-17T13:02:03.117Z,99299.25
2023-03-17T13:05:23.913Z,99296.66
2023-03-17T13:08:28.778Z,99303.34
2023-03-17T13:11:57.713Z,99294.72
2023-03-17T13:14:56.700Z,99295.03
2023-03-17T13:17:38.563Z,99295.88
2023-03-17T13:20:31.788Z,99304.41
2023-03-17T13:23:16.851Z,99290.19
2023-03-17T13:26:06.835Z,99277.53
2023-03-17T13:28:50.615Z,99292.19
2023-03-17T13:31:50.754Z,99279.59
2023-03-17T13:34:52.763Z,99284.81
2023-03-17T13:37:39.934Z,99270.16
2023-03-17T13:40:31.997Z,99270.78
2023-03-17T13:43:24.914Z,99264.91
2023-03-17T13:46:33.747Z,99272.59
2023-03-17T13:49:37.221Z,99275.00
2023-03-17T13:52:31.854Z,99275.63
2023-03-17T13:55:52.735Z,99270.19
2023-03-17T13:58:49.802Z,99277.53
2023-03-17T14:01:38.698Z,99273.16
2023-03-17T14:04:25.691Z,99285.81
2023-03-17T14:07:19.671Z,99281.91
2023-03-17T14:10:10.817Z,99283.78
2023-03-17T14:12:59.704Z,99275.16
2023-03-17T14:16:03.773Z,99283.16
2023-03-17T14:18:50.548Z,99285.91
2023-03-17T14:21:40.712Z,99287.34
2023-03-17T14:24:24.910Z,99284.00
2023-03-17T14:27:19.835Z,99279.63
2023-03-17T14:30:15.806Z,99285.25
2023-03-17T14:33:00.663Z,99279.97
2023-03-17T14:35:50.908Z,99270.47
2023-03-17T14:38:34.676Z,99279.53
2023-03-17T14:41:27.788Z,99281.31
2023-03-17T14:44:09.603Z,99272.94
2023-03-17T14:47:14.669Z,99277.97
2023-03-17T14:50:02.889Z,99277.34
2023-03-17T14:52:47.626Z,99263.19
2023-03-17T14:55:43.845Z,99277.13
2023-03-17T14:58:31.671Z,99271.41
2023-03-17T15:01:23.781Z,99269.31
2023-03-17T15:04:15.596Z,99258.28
2023-03-17T15:07:06.737Z,99265.38
2023-03-17T15:09:48.572Z,99258.59
2023-03-17T15:12:37.768Z,99277.53
2023-03-17T15:15:30.540Z,99267.53
2023-03-17T15:18:22.555Z,99264.63
2023-03-17T15:21:05.929Z,99268.47
2023-03-17T15:23:55.536Z,99258.06
2023-03-17T15:26:44.744Z,99257.97
2023-03-17T15:31:16.733Z,99262.69
2023-03-17T15:51:09.647Z,99256.06
2023-03-17T15:53:57.517Z,99264.91
2023-03-17T15:56:45.899Z,99250.22
2023-03-17T15:59:28.430Z,99258.31
2023-03-17T16:02:33.760Z,99251.41
2023-03-17T16:05:23.664Z,99247.63
2023-03-17T16:24:45.445Z,99239.09
2023-03-17T16:27:33.686Z,99252.53
2023-03-17T16:30:21.425Z,99241.28
2023-03-17T16:33:20.627Z,99242.75
2023-03-17T16:36:04.444Z,99235.34
2023-03-17T16:39:08.452Z,99240.03
2023-03-17T16:41:51.080Z,99239.91
2023-03-17T16:44:39.469Z,99242.84
2023-03-17T16:47:27.786Z,99239.09
2023-03-17T16:50:10.353Z,99247.22
2023-03-17T16:52:59.582Z,99250.94
2023-03-17T16:55:41.422Z,99240.91
2023-03-17T17:11:48.550Z,99241.81
2023-03-17T17:14:44.618Z,99250.00
2023-03-17T17:17:37.220Z,99246.38
2023-03-17T17:20:30.663Z,99244.50
2023-03-17T17:23:24.800Z,99248.56
2023-03-17T17:26:23.206Z,99243.16
2023-03-17T17:51:49.393Z,99254.69
2023-03-17T18:17:45.480Z,99278.91
2023-03-17T18:20:57.120Z,99288.66
2023-03-17T18:29:20.825Z,99285.97
2023-03-17T18:32:54.672Z,99287.44
2023-03-17T18:53:35.770Z,99297.56
2023-03-17T19:00:47.774Z,99303.75
2023-03-17T19:04:42.878Z,99309.59
2023-03-17T19:16:37.583Z,99318.31
2023-03-17T19:19:59.545Z,99314.81
2023-03-17T19:23:01.249Z,99313.19
2023-03-17T19:26:05.037Z,99312.47
2023-03-17T19:33:34.333Z,99320.03
2023-03-17T19:36:38.281Z,99319.22
2023-03-17T19:39:30.118Z,99319.09
2023-03-17T19:43:10.881Z,99319.38
2023-03-17T19:46:17.278Z,99318.56
2023-03-17T19:49:24.062Z,99320.38
2023-03-17T19:52:40.776Z,99327.72
2023-03-17T19:55:48.368Z,99331.59
2023-03-17T20:02:30.759Z,99329.59
2023-03-17T20:07:08.885Z,99322.38
2023-03-17T20:09:56.073Z,99332.69
2023-03-17T20:14:10.631Z,99326.47
2023-03-17T20:17:17.242Z,99330.50
2023-03-17T20:20:55.746Z,99327.50
2023-03-17T20:32:49.787Z,99329.72
2023-03-17T20:36:21.986Z,99333.16
2023-03-17T22:54:30.978Z,99282.78
2023-03-17T23:06:56.190Z,99294.47
2023-03-17T23:10:32.216Z,99293.47
2023-03-17T23:13:21.874Z,99291.38
2023-03-17T23:16:13.700Z,99291.78
2023-03-17T23:19:05.904Z,99291.38
2023-03-17T23:21:52.228Z,99289.84
2023-03-17T23:25:16.503Z,99284.69
2023-03-17T23:28:49.960Z,99281.19
2023-03-17T23:31:49.771Z,99286.38
2023-03-17T23:34:50.850Z,99280.34
2023-03-17T23:38:11.783Z,99276.63
2023-03-17T23:41:18.596Z,99272.63
2023-03-17T23:44:43.560Z,99278.13
2023-03-17T23:47:32.103Z,99282.34
2023-03-17T23:50:17.912Z,99280.25
2023-03-17T23:53:16.447Z,99283.75
2023-03-17T23:56:00.263Z,99279.50
2023-03-17T23:58:57.427Z,99281.31
